Time;durP1;ratioP1;P1;durP2;ratioP2;P2;SDS_P1;SDS_P2;PMS_P1;PMS_P2;Temp;Humidity;BMP_temperature;BMP_pressure;BME280_temperature;BME280_humidity;BME280_pressure;Samples;Min_cycle;Max_cycle;Signal;HPM_P1;HPM_P2
2024/04/02 00:00:29;;;;;;;4.88;2.50;;;;;;;5.82;100.00;100204.97;5049856;28;20041;-78
2024/04/02 00:02:55;;;;;;;4.22;2.40;;;;;;;5.83;100.00;100211.94;5049342;28;20428;-76
2024/04/02 00:05:20;;;;;;;3.30;2.28;;;;;;;5.83;100.00;100210.13;5049346;28;20033;-76
2024/04/02 00:07:45;;;;;;;9.50;2.58;;;;;;;5.78;100.00;100214.97;5049390;28;20061;-76
2024/04/02 00:10:11;;;;;;;3.75;2.53;;;;;;;5.77;100.00;100209.81;5049062;28;20369;-77
2024/04/02 00:12:36;;;;;;;4.32;2.50;;;;;;;5.79;100.00;100215.78;5049751;28;20458;-77
2024/04/02 00:15:05;;;;;;;3.58;2.40;;;;;;;5.80;100.00;100210.38;5049901;28;20033;-78
2024/04/02 00:17:30;;;;;;;2.38;2.00;;;;;;;5.80;100.00;100210.38;5054174;28;20136;-78
2024/04/02 00:19:56;;;;;;;3.13;2.10;;;;;;;5.77;100.00;100213.28;5053103;28;20115;-77
2024/04/02 00:22:21;;;;;;;4.60;2.38;;;;;;;5.72;100.00;100212.81;5053665;28;20061;-78
2024/04/02 00:24:46;;;;;;;3.35;2.45;;;;;;;5.65;100.00;100216.91;5053722;28;20116;-77
2024/04/02 00:27:12;;;;;;;3.13;2.30;;;;;;;5.58;100.00;100213.94;5053021;28;20036;-78
2024/04/02 00:29:37;;;;;;;3.72;2.83;;;;;;;5.53;100.00;100213.44;5053448;28;20040;-76
2024/04/02 00:32:03;;;;;;;5.78;2.38;;;;;;;5.50;100.00;100212.84;5052882;28;20036;-78
2024/04/02 00:34:29;;;;;;;3.63;2.25;;;;;;;5.47;100.00;100224.47;5053525;28;20051;-77
2024/04/02 00:36:54;;;;;;;3.47;2.30;;;;;;;5.41;100.00;100228.44;5052729;28;20052;-78
2024/04/02 00:39:19;;;;;;;3.83;2.42;;;;;;;5.42;100.00;100219.56;5052892;28;20405;-78
2024/04/02 00:41:45;;;;;;;3.47;2.40;;;;;;;5.44;100.00;100220.28;5053420;28;20036;-78
2024/04/02 00:53:29;;;;;;;3.53;2.40;;;;;;;5.23;100.00;100236.00;5055178;23;20112;-78
2024/04/02 00:55:56;;;;;;;2.50;2.28;;;;;;;5.25;100.00;100241.97;4994990;28;20043;-79
2024/04/02 00:58:23;;;;;;;6.55;3.45;;;;;;;5.30;100.00;100236.38;4994930;28;20030;-80
2024/04/02 01:00:50;;;;;;;3.38;2.60;;;;;;;5.33;100.00;100236.13;4994005;28;20113;-79
2024/04/02 01:03:15;;;;;;;5.43;2.60;;;;;;;5.33;100.00;100236.13;4994762;28;20097;-79
2024/04/02 01:05:41;;;;;;;4.05;2.50;;;;;;;5.30;100.00;100228.47;4992605;28;20422;-79
2024/04/02 01:08:09;;;;;;;3.45;2.28;;;;;;;5.27;100.00;100242.72;4994636;28;20026;-78
2024/04/02 01:10:35;;;;;;;4.47;2.30;;;;;;;5.26;100.00;100241.03;4994597;28;20147;-79
2024/04/02 01:13:00;;;;;;;4.20;2.58;;;;;;;5.27;100.00;100249.78;4994916;28;20188;-79
2024/04/02 01:15:25;;;;;;;7.43;2.70;;;;;;;5.30;100.00;100245.13;4994885;28;20031;-79
2024/04/02 01:17:51;;;;;;;2.40;2.20;;;;;;;5.32;100.00;100244.16;4995122;28;20039;-79
2024/04/02 01:20:16;;;;;;;5.72;2.40;;;;;;;5.30;100.00;100255.66;4995063;28;20038;-79
2024/04/02 01:22:41;;;;;;;6.07;3.03;;;;;;;5.32;100.00;100255.53;4994482;28;20061;-79
2024/04/02 01:25:08;;;;;;;9.60;2.83;;;;;;;5.29;100.00;100253.97;4995139;28;20068;-79
2024/04/02 01:27:34;;;;;;;4.03;2.50;;;;;;;5.29;100.00;100251.34;4993368;28;20042;-79
2024/04/02 01:29:59;;;;;;;5.85;2.72;;;;;;;5.30;100.00;100253.03;4995013;28;20031;-78
2024/04/02 01:32:25;;;;;;;4.68;2.50;;;;;;;5.34;100.00;100260.69;4994721;28;20116;-78
2024/04/02 01:34:50;;;;;;;3.15;2.05;;;;;;;5.34;100.00;100258.06;4994411;28;20045;-78
2024/04/02 01:37:15;;;;;;;5.07;2.53;;;;;;;5.31;100.00;100264.41;4994671;28;20435;-78
2024/04/02 01:39:41;;;;;;;4.43;2.30;;;;;;;5.28;100.00;100254.09;4994423;28;20366;-78
2024/04/02 01:42:06;;;;;;;4.15;2.17;;;;;;;5.24;100.00;100257.91;4994753;28;20093;-78
2024/04/02 01:44:31;;;;;;;7.40;2.40;;;;;;;5.21;100.00;100251.09;4994230;28;20446;-78
2024/04/02 01:46:57;;;;;;;3.97;2.25;;;;;;;5.21;100.00;100260.78;4994657;28;20486;-78
2024/04/02 01:49:22;;;;;;;3.30;2.03;;;;;;;5.19;100.00;100265.38;4994830;28;20490;-79
2024/04/02 01:51:48;;;;;;;5.32;2.30;;;;;;;5.18;100.00;100264.53;4993853;28;20533;-78
2024/04/02 01:54:13;;;;;;;4.10;2.28;;;;;;;5.23;100.00;100259.72;4994426;28;20470;-78
2024/04/02 01:56:39;;;;;;;3.90;2.10;;;;;;;5.28;100.00;100264.66;4976519;28;20056;-78
2024/04/02 01:59:04;;;;;;;3.78;2.40;;;;;;;5.27;100.00;100261.19;4994851;28;20455;-79
2024/04/02 02:01:29;;;;;;;4.53;2.38;;;;;;;5.29;100.00;100259.25;4994765;28;20038;-78
2024/04/02 02:03:55;;;;;;;2.80;2.28;;;;;;;5.28;100.00;100259.38;4994600;28;20441;-78
2024/04/02 02:06:20;;;;;;;6.90;2.50;;;;;;;5.25;100.00;100260.44;4994506;28;20030;-79
2024/04/02 02:08:46;;;;;;;4.07;2.40;;;;;;;5.25;100.00;100265.72;4992748;28;20121;-79
2024/04/02 02:11:11;;;;;;;3.05;2.20;;;;;;;5.24;100.00;100265.84;4993951;28;20121;-79
2024/04/02 02:13:37;;;;;;;4.57;2.53;;;;;;;5.25;100.00;100268.34;4993853;28;20117;-79
2024/04/02 02:16:03;;;;;;;7.10;2.60;;;;;;;5.23;100.00;100269.44;4994129;28;20066;-79
2024/04/02 02:18:29;;;;;;;6.78;2.30;;;;;;;5.18;100.00;100268.94;4992823;28;20450;-79
2024/04/02 02:20:55;;;;;;;6.80;2.17;;;;;;;5.17;100.00;100280.47;4993252;28;20041;-80
2024/04/02 02:23:21;;;;;;;4.95;2.35;;;;;;;5.12;100.00;100273.75;4992798;28;20456;-79
2024/04/02 02:25:46;;;;;;;6.13;2.75;;;;;;;5.12;100.00;100267.66;4993666;28;20459;-79
2024/04/02 02:28:11;;;;;;;2.60;2.20;;;;;;;5.11;100.00;100271.22;4993833;28;20218;-79
2024/04/02 02:30:37;;;;;;;5.22;2.70;;;;;;;5.15;100.00;100277.97;4992957;28;20498;-80
2024/04/02 02:33:02;;;;;;;6.13;2.85;;;;;;;5.17;100.00;100277.84;4993464;28;20061;-79
2024/04/02 02:35:28;;;;;;;5.07;2.58;;;;;;;5.13;100.00;100279.84;4993438;28;20038;-80
2024/04/02 02:37:53;;;;;;;4.75;2.47;;;;;;;5.07;100.00;100273.25;4992832;28;20038;-79
2024/04/02 02:40:18;;;;;;;3.35;2.38;;;;;;;5.05;100.00;100277.81;4993844;28;20030;-79
2024/04/02 02:42:46;;;;;;;5.18;2.20;;;;;;;5.03;100.00;100281.50;4992917;28;20387;-79
2024/04/02 02:45:12;;;;;;;4.95;2.60;;;;;;;4.98;100.00;100273.13;4993819;28;20479;-79
2024/04/02 02:47:37;;;;;;;5.45;2.60;;;;;;;4.95;100.00;100272.38;4993224;28;20046;-78
2024/04/02 02:50:03;;;;;;;4.22;2.75;;;;;;;4.98;100.00;100279.22;4991977;28;20513;-79
2024/04/02 02:52:29;;;;;;;4.47;2.17;;;;;;;5.00;100.00;100284.38;4993188;28;20046;-79
2024/04/02 02:54:54;;;;;;;4.10;2.42;;;;;;;4.98;100.00;100287.13;4993103;28;20078;-79
2024/04/02 02:57:19;;;;;;;5.63;2.17;;;;;;;4.98;100.00;100288.94;4993401;28;20026;-79
2024/04/02 02:59:44;;;;;;;5.28;2.63;;;;;;;4.93;100.00;100292.75;4992734;28;20034;-79
2024/04/02 03:02:10;;;;;;;4.93;2.58;;;;;;;4.90;100.00;100290.34;4993735;28;20053;-79
2024/04/02 03:04:35;;;;;;;4.65;2.58;;;;;;;4.91;100.00;100289.41;4993040;28;20031;-79
2024/04/02 03:07:00;;;;;;;4.32;2.72;;;;;;;4.91;100.00;100299.97;4992899;28;20031;-79
2024/04/02 03:09:26;;;;;;;5.70;2.60;;;;;;;4.88;100.00;100301.97;4993112;28;20080;-78
2024/04/02 03:11:51;;;;;;;5.68;2.50;;;;;;;4.87;100.00;100311.69;4992711;28;20022;-79
2024/04/02 03:14:18;;;;;;;3.65;2.60;;;;;;;4.81;100.00;100312.16;4992742;28;20035;-79
2024/04/02 03:16:43;;;;;;;3.63;2.50;;;;;;;4.82;100.00;100310.34;4992285;28;20049;-79
2024/04/02 03:19:09;;;;;;;4.78;2.53;;;;;;;4.88;100.00;100309.88;4992988;28;20030;-79
2024/04/02 03:21:35;;;;;;;4.43;2.78;;;;;;;4.89;100.00;100320.31;4992926;28;20116;-79
2024/04/02 03:24:01;;;;;;;4.07;2.63;;;;;;;4.97;100.00;100314.47;4992552;28;20062;-80
2024/04/02 03:26:26;;;;;;;7.35;3.10;;;;;;;4.97;100.00;100314.47;4992677;28;20031;-79
2024/04/02 03:28:52;;;;;;;6.35;2.90;;;;;;;4.93;100.00;100316.50;4992513;28;20038;-79
2024/04/02 03:31:17;;;;;;;4.18;2.67;;;;;;;4.89;100.00;100322.13;4992578;28;20030;-80
2024/04/02 03:33:42;;;;;;;3.70;2.63;;;;;;;4.90;100.00;100321.16;4992126;28;20077;-80
2024/04/02 03:36:08;;;;;;;6.78;2.80;;;;;;;4.93;100.00;100320.94;4992857;28;20061;-80
2024/04/02 03:38:34;;;;;;;6.25;2.90;;;;;;;4.99;100.00;100322.28;4992893;28;20096;-80
2024/04/02 03:41:13;;;;;;;6.50;3.20;;;;;;;5.06;100.00;100328.75;4992328;28;20042;-81
2024/04/02 03:43:41;;;;;;;5.35;3.00;;;;;;;5.06;100.00;100334.00;4992830;28;20070;-81
2024/04/02 03:46:08;;;;;;;4.18;2.60;;;;;;;5.04;100.00;100331.50;4992310;28;20034;-80
2024/04/02 03:48:33;;;;;;;6.20;3.00;;;;;;;5.02;100.00;100338.69;4992393;28;20042;-79
2024/04/02 03:50:59;;;;;;;5.80;3.05;;;;;;;5.04;100.00;100338.56;4994458;28;20121;-79
2024/04/02 03:53:24;;;;;;;6.55;3.22;;;;;;;5.10;100.00;100344.22;4996278;28;20050;-79
2024/04/02 03:56:03;;;;;;;8.00;2.90;;;;;;;5.17;100.00;100339.34;4996360;28;20360;-80
2024/04/02 03:58:30;;;;;;;6.15;3.15;;;;;;;5.21;100.00;100345.19;4996785;28;20089;-79
2024/04/02 04:00:56;;;;;;;6.97;3.10;;;;;;;5.25;100.00;100354.56;4996189;28;20181;-80
2024/04/02 04:03:25;;;;;;;6.40;2.92;;;;;;;5.29;100.00;100348.13;4996699;28;20058;-80
2024/04/02 04:06:01;;;;;;;7.82;3.10;;;;;;;5.39;100.00;100358.78;4995861;28;20467;-80
2024/04/02 04:08:27;;;;;;;8.50;3.30;;;;;;;5.50;100.00;100355.34;4996166;28;20031;-80
2024/04/02 04:10:53;;;;;;;6.70;3.15;;;;;;;5.59;100.00;100363.38;4995672;28;20085;-80
2024/04/02 04:13:19;;;;;;;13.25;3.33;;;;;;;5.70;100.00;100365.19;4996586;28;20026;-81
2024/04/02 04:15:57;;;;;;;6.38;3.05;;;;;;;5.77;100.00;100363.75;4996124;28;20105;-79
2024/04/02 04:18:24;;;;;;;6.38;2.85;;;;;;;5.84;100.00;100364.13;4996542;28;20046;-80
2024/04/02 04:21:00;;;;;;;5.75;2.88;;;;;;;5.88;100.00;100367.34;4996175;28;20482;-81
2024/04/02 04:23:27;;;;;;;8.88;3.20;;;;;;;5.87;100.00;100355.09;4996095;28;20058;-81
2024/04/02 04:25:59;;;;;;;5.32;2.80;;;;;;;5.86;100.00;100370.13;4995621;28;20030;-80
2024/04/02 04:28:26;;;;;;;5.03;2.83;;;;;;;5.88;100.00;100368.22;4995792;28;20038;-81
2024/04/02 04:30:55;;;;;;;5.13;2.90;;;;;;;5.90;100.00;100365.44;4995554;28;20063;-80
2024/04/02 04:33:22;;;;;;;6.25;3.28;;;;;;;5.93;100.00;100373.13;4996096;28;20080;-80
2024/04/02 04:35:48;;;;;;;7.05;2.50;;;;;;;5.94;100.00;100367.72;4996019;28;20038;-80
2024/04/02 04:38:14;;;;;;;23.65;2.80;;;;;;;6.00;100.00;100369.06;4995469;28;20038;-80
2024/04/02 04:40:40;;;;;;;6.80;2.88;;;;;;;6.02;100.00;100372.44;4995822;28;20038;-80
2024/04/02 04:43:06;;;;;;;6.55;2.63;;;;;;;6.05;100.00;100371.38;4995216;28;20031;-81
2024/04/02 04:45:31;;;;;;;5.80;3.10;;;;;;;6.10;100.00;100372.66;4994629;28;20030;-80
2024/04/02 04:47:58;;;;;;;3.47;2.30;;;;;;;6.15;100.00;100380.22;4994021;28;20138;-81
2024/04/02 04:50:23;;;;;;;5.68;2.25;;;;;;;6.14;100.00;100376.75;4995633;28;20521;-81
2024/04/02 04:52:49;;;;;;;9.57;2.80;;;;;;;6.15;100.00;100374.94;4994586;28;20054;-81
2024/04/02 04:55:14;;;;;;;5.38;2.30;;;;;;;6.21;100.00;100386.81;4995207;28;20105;-80
2024/04/02 04:57:39;;;;;;;6.38;2.38;;;;;;;6.21;100.00;100389.44;4994051;28;20046;-80
2024/04/02 05:00:05;;;;;;;6.18;2.78;;;;;;;6.18;100.00;100390.56;4995111;28;20450;-79
2024/04/02 05:02:31;;;;;;;5.03;2.25;;;;;;;6.15;100.00;100396.06;4995431;28;20042;-81
2024/04/02 05:04:56;;;;;;;12.05;2.33;;;;;;;6.10;100.00;100388.50;4994825;28;20446;-81
2024/04/02 05:07:23;;;;;;;12.93;2.10;;;;;;;6.15;100.00;100401.34;4994207;28;20459;-80
2024/04/02 05:09:50;;;;;;;9.32;2.40;;;;;;;6.20;100.00;100401.84;4995497;28;20026;-79
2024/04/02 05:12:15;;;;;;;7.63;2.28;;;;;;;6.25;100.00;100407.59;4994551;28;20089;-80
2024/04/02 05:14:40;;;;;;;6.63;2.20;;;;;;;6.28;100.00;100404.69;4995061;28;20026;-80
2024/04/02 05:17:05;;;;;;;5.13;2.08;;;;;;;6.35;100.00;100413.81;4994768;28;20052;-80
2024/04/02 05:19:31;;;;;;;10.60;2.58;;;;;;;6.38;100.00;100414.56;4995220;28;20121;-79
2024/04/02 05:21:56;;;;;;;10.32;2.58;;;;;;;6.40;100.00;100412.63;4994966;28;20042;-80
2024/04/02 05:24:21;;;;;;;6.40;2.20;;;;;;;6.43;100.00;100410.56;4994723;28;20034;-78
2024/04/02 05:26:47;;;;;;;12.95;3.28;;;;;;;6.46;100.00;100406.84;4995156;28;20030;-79
2024/04/02 05:29:12;;;;;;;5.15;1.85;;;;;;;6.46;100.00;100404.19;4994459;28;20049;-79
2024/04/02 05:31:37;;;;;;;5.80;2.03;;;;;;;6.49;100.00;100409.22;4993806;28;20061;-78
2024/04/02 05:34:03;;;;;;;5.75;2.10;;;;;;;6.50;100.00;100421.50;4994315;28;20390;-80
2024/04/02 05:36:28;;;;;;;4.28;2.03;;;;;;;6.52;100.00;100416.91;4994843;28;20034;-80
2024/04/02 05:38:54;;;;;;;5.68;2.13;;;;;;;6.55;100.00;100419.31;4994538;28;20125;-80
2024/04/02 05:41:19;;;;;;;7.43;2.22;;;;;;;6.60;100.00;100418.94;4994504;28;20234;-81
2024/04/02 05:43:45;;;;;;;7.68;2.22;;;;;;;6.63;100.00;100424.00;4994966;28;20335;-80
2024/04/02 05:46:10;;;;;;;6.68;2.17;;;;;;;6.65;100.00;100422.91;4994430;28;20031;-81
2024/04/02 05:48:35;;;;;;;9.82;2.30;;;;;;;6.67;100.00;100428.06;4994645;28;20034;-80
2024/04/02 05:51:01;;;;;;;6.53;1.75;;;;;;;6.70;100.00;100427.81;4994502;28;20037;-80
2024/04/02 05:53:26;;;;;;;11.35;2.28;;;;;;;6.76;100.00;100424.66;4993156;28;20129;-81
2024/04/02 05:55:52;;;;;;;5.68;2.25;;;;;;;6.84;100.00;100429.34;4993345;28;20072;-81
2024/04/02 05:58:17;;;;;;;4.10;2.20;;;;;;;6.93;100.00;100431.25;4994127;28;20030;-82
2024/04/02 06:00:42;;;;;;;7.57;2.08;;;;;;;6.99;100.00;100430.75;4994403;28;20038;-80
2024/04/02 06:03:08;;;;;;;10.43;2.33;;;;;;;7.02;100.00;100429.66;4994105;28;20030;-81
2024/04/02 06:05:33;;;;;;;9.00;2.83;;;;;;;7.06;100.00;100425.75;4993494;28;20030;-81
2024/04/02 06:07:58;;;;;;;7.93;2.38;;;;;;;7.09;100.00;100429.97;4994283;28;20073;-81
2024/04/02 06:10:26;;;;;;;10.90;2.40;;;;;;;7.14;100.00;100431.28;4992545;28;20065;-81
2024/04/02 06:12:52;;;;;;;7.57;2.05;;;;;;;7.17;100.00;100438.13;4993696;28;20030;-82
2024/04/02 06:15:17;;;;;;;8.52;2.25;;;;;;;7.19;100.00;100441.47;4993828;28;20443;-82
2024/04/02 06:17:42;;;;;;;7.68;2.20;;;;;;;7.20;100.00;100443.16;4993921;28;20046;-81
2024/04/02 06:20:08;;;;;;;7.18;2.42;;;;;;;7.23;100.00;100446.38;4976281;28;20041;-79
2024/04/02 06:22:35;;;;;;;8.88;2.20;;;;;;;7.26;100.00;100447.13;4993403;28;20042;-82
2024/04/02 06:25:01;;;;;;;5.65;2.00;;;;;;;7.31;100.00;100440.44;4994518;28;20030;-81
2024/04/02 06:27:27;;;;;;;5.18;1.80;;;;;;;7.33;100.00;100435.03;4993590;28;20495;-81
2024/04/02 06:29:52;;;;;;;7.20;2.30;;;;;;;7.39;100.00;100448.63;4993755;28;20115;-80
2024/04/02 06:32:18;;;;;;;6.15;2.08;;;;;;;7.41;100.00;100446.66;4994078;28;20402;-82
2024/04/02 06:34:43;;;;;;;4.68;1.83;;;;;;;7.47;100.00;100441.84;4993944;28;20391;-81
2024/04/02 06:37:09;;;;;;;10.35;2.00;;;;;;;7.54;100.00;100448.31;4993528;28;20084;-79
2024/04/02 06:39:34;;;;;;;8.57;2.88;;;;;;;7.60;100.00;100450.44;4993581;28;20030;-79
2024/04/02 06:41:59;;;;;;;8.27;2.30;;;;;;;7.66;100.00;100446.41;4993642;28;20034;-79
2024/04/02 06:44:25;;;;;;;13.88;2.55;;;;;;;7.75;100.00;100451.78;4993133;28;20031;-79
2024/04/02 06:46:50;;;;;;;6.03;1.90;;;;;;;7.82;100.00;100449.44;4993641;28;20031;-80
2024/04/02 06:49:15;;;;;;;7.63;2.33;;;;;;;7.91;100.00;100440.72;4991819;28;20034;-80
2024/04/02 06:51:40;;;;;;;7.95;2.17;;;;;;;7.94;100.00;100452.84;4993214;28;20471;-80
2024/04/02 06:54:06;;;;;;;10.07;3.00;;;;;;;8.00;100.00;100454.13;4992575;28;20061;-80
2024/04/02 06:56:31;;;;;;;8.10;2.83;;;;;;;8.06;100.00;100445.66;4992994;28;20030;-81
2024/04/02 06:58:57;;;;;;;7.43;2.40;;;;;;;8.16;100.00;100446.53;4992205;28;20031;-81
2024/04/02 07:01:22;;;;;;;7.78;2.60;;;;;;;8.23;100.00;100457.47;4993423;28;20081;-85
2024/04/02 07:03:48;;;;;;;13.88;2.58;;;;;;;8.23;100.00;100452.16;4993343;28;20093;-82
2024/04/02 07:06:13;;;;;;;8.10;2.30;;;;;;;8.22;100.00;100456.59;4993167;28;20030;-82
2024/04/02 07:08:40;;;;;;;10.98;2.63;;;;;;;8.30;100.00;100451.50;4993564;28;20034;-80
2024/04/02 07:11:06;;;;;;;16.15;2.45;;;;;;;8.34;100.00;100448.56;4993265;28;20077;-82
2024/04/02 07:13:33;;;;;;;11.90;2.33;;;;;;;8.38;100.00;100456.13;4992964;28;20070;-80
2024/04/02 07:15:59;;;;;;;5.38;2.70;;;;;;;8.52;100.00;100462.88;4993344;28;20034;-81
2024/04/02 07:18:24;;;;;;;13.45;2.38;;;;;;;8.77;100.00;100469.50;4993137;28;20093;-83
2024/04/02 07:21:16;;;;;;;10.52;2.40;;;;;;;9.02;100.00;100461.16;4987557;28;20440;-83
2024/04/02 07:23:41;;;;;;;15.38;4.03;;;;;;;9.09;100.00;100457.00;4969189;28;20053;-83
2024/04/02 07:26:07;;;;;;;12.32;2.58;;;;;;;9.23;100.00;100463.72;4970494;28;20110;-85
2024/04/02 07:28:33;;;;;;;13.57;2.70;;;;;;;9.24;100.00;100471.53;4970658;28;20086;-84
2024/04/02 07:30:58;;;;;;;9.50;2.67;;;;;;;9.25;100.00;100475.84;4971441;28;20043;-85
2024/04/02 07:33:24;;;;;;;8.32;2.22;;;;;;;9.34;100.00;100476.84;4971038;28;20511;-85
2024/04/02 07:35:55;;;;;;;19.10;3.95;;;;;;;9.35;100.00;100486.50;4969935;28;20085;-87
2024/04/02 07:38:21;;;;;;;10.05;1.98;;;;;;;9.29;100.00;100485.22;4970626;28;20089;-87
2024/04/02 07:40:47;;;;;;;6.30;2.40;;;;;;;9.25;100.00;100486.47;4970877;28;20050;-83
2024/04/02 07:43:12;;;;;;;8.90;2.50;;;;;;;9.24;100.00;100478.66;4970927;28;20557;-83
2024/04/02 07:45:38;;;;;;;11.27;2.65;;;;;;;9.23;100.00;100484.97;4970095;28;20066;-84
2024/04/02 07:48:04;;;;;;;10.23;2.45;;;;;;;9.32;100.00;100484.94;4970686;28;20506;-81
2024/04/02 07:50:30;;;;;;;7.57;2.42;;;;;;;9.39;100.00;100490.56;4970023;28;20129;-82
2024/04/02 07:52:55;;;;;;;12.52;2.38;;;;;;;9.65;100.00;100490.78;4970682;28;20054;-81
2024/04/02 07:55:21;;;;;;;16.40;2.75;;;;;;;9.80;100.00;100487.72;4970548;28;20510;-82
2024/04/02 07:57:46;;;;;;;12.88;2.30;;;;;;;9.79;100.00;100483.38;4970444;28;20030;-82
2024/04/02 08:00:12;;;;;;;7.55;2.00;;;;;;;9.88;100.00;100491.34;4970805;28;20062;-83
2024/04/02 08:02:37;;;;;;;14.43;2.80;;;;;;;9.97;100.00;100492.31;4970280;28;20439;-82
2024/04/02 08:05:03;;;;;;;20.85;4.28;;;;;;;10.11;100.00;100495.47;4970908;28;20035;-82
2024/04/02 08:07:29;;;;;;;11.60;2.42;;;;;;;10.45;100.00;100494.94;4970794;28;20042;-79
2024/04/02 08:09:55;;;;;;;16.42;3.25;;;;;;;10.66;100.00;100500.03;4985578;28;20062;-80
2024/04/02 08:12:20;;;;;;;11.55;2.33;;;;;;;10.67;100.00;100499.06;4991795;28;20066;-83
2024/04/02 08:14:45;;;;;;;13.88;2.72;;;;;;;10.68;100.00;100498.09;4992568;28;20112;-81
2024/04/02 08:17:11;;;;;;;10.68;2.30;;;;;;;10.68;100.00;100500.75;4992881;28;20046;-81
2024/04/02 08:19:36;;;;;;;8.95;2.50;;;;;;;10.93;100.00;100496.53;4992270;28;20034;-82
2024/04/02 08:22:01;;;;;;;5.90;1.70;;;;;;;11.00;100.00;100494.09;4992592;28;20043;-81
2024/04/02 08:24:27;;;;;;;14.27;3.05;;;;;;;10.92;100.00;100509.00;4990939;28;20081;-81
2024/04/02 08:26:52;;;;;;;6.90;2.38;;;;;;;10.91;100.00;100504.69;4992541;28;20120;-82
2024/04/02 08:29:18;;;;;;;10.07;2.30;;;;;;;10.88;100.00;100507.63;4992493;28;20094;-81
2024/04/02 08:31:43;;;;;;;6.10;2.05;;;;;;;10.88;100.00;100498.78;4991804;28;20038;-84
2024/04/02 08:34:09;;;;;;;11.18;1.90;;;;;;;10.74;100.00;100508.94;4992592;28;20054;-82
2024/04/02 08:36:34;;;;;;;8.23;1.80;;;;;;;10.56;100.00;100516.88;4993506;28;20046;-82
2024/04/02 08:38:59;;;;;;;9.88;1.92;;;;;;;10.43;100.00;100511.06;4996290;28;20133;-81
2024/04/02 08:41:26;;;;;;;8.52;2.08;;;;;;;10.36;100.00;100520.59;4995869;28;20031;-84
2024/04/02 08:43:56;;;;;;;11.65;1.80;;;;;;;10.26;100.00;100527.75;4996167;28;20039;-81
2024/04/02 08:46:23;;;;;;;8.02;2.33;;;;;;;10.14;100.00;100529.75;4996270;28;20026;-81
2024/04/02 08:48:51;;;;;;;14.70;2.25;;;;;;;10.04;100.00;100529.75;4995789;28;20026;-77
2024/04/02 08:51:17;;;;;;;12.73;2.63;;;;;;;10.13;100.00;100523.56;4994480;28;20030;-80
2024/04/02 08:53:42;;;;;;;12.55;2.58;;;;;;;10.24;100.00;100535.88;4995796;28;20057;-80
2024/04/02 08:56:08;;;;;;;5.57;2.25;;;;;;;10.34;100.00;100527.91;4995867;28;20066;-83
2024/04/02 08:58:35;;;;;;;7.18;2.05;;;;;;;10.55;100.00;100528.53;4994453;28;20097;-80
2024/04/02 09:01:04;;;;;;;14.10;2.60;;;;;;;10.52;100.00;100538.59;4992111;28;20034;-80
2024/04/02 09:03:30;;;;;;;8.25;2.28;;;;;;;10.46;100.00;100529.38;4983663;28;20459;-80
2024/04/02 09:05:57;;;;;;;9.07;2.25;;;;;;;10.49;100.00;100537.06;4975435;28;20451;-80
2024/04/02 09:08:23;;;;;;;9.30;2.25;;;;;;;10.50;100.00;100544.06;4975404;28;20447;-79
2024/04/02 09:10:48;;;;;;;8.63;2.22;;;;;;;10.52;100.00;100552.72;4975246;28;20041;-82
2024/04/02 09:13:14;;;;;;;9.60;3.17;;;;;;;10.22;100.00;100548.47;4975351;28;20454;-81
2024/04/02 09:15:40;;;;;;;7.32;2.30;;;;;;;9.96;100.00;100556.22;4973809;28;20034;-81
2024/04/02 09:18:05;;;;;;;6.18;2.13;;;;;;;9.84;100.00;100550.22;4974815;28;20049;-82
2024/04/02 09:20:33;;;;;;;8.52;2.22;;;;;;;9.95;100.00;100551.88;4974793;28;20054;-80
2024/04/02 09:22:59;;;;;;;6.85;2.30;;;;;;;10.16;100.00;100549.88;4973961;28;20035;-79
2024/04/02 09:25:25;;;;;;;6.10;2.10;;;;;;;10.34;100.00;100536.69;4989932;28;20427;-78
2024/04/02 09:27:51;;;;;;;16.58;2.70;;;;;;;10.23;100.00;100550.97;4974597;28;20041;-80
2024/04/02 09:30:16;;;;;;;10.30;2.90;;;;;;;10.14;100.00;100551.03;4974689;28;20468;-79
2024/04/02 09:32:43;;;;;;;9.45;2.42;;;;;;;10.01;100.00;100562.78;4974663;28;20440;-80
2024/04/02 09:35:12;;;;;;;8.02;2.33;;;;;;;9.78;100.00;100561.38;4974496;28;20073;-79
2024/04/02 09:37:40;;;;;;;12.45;2.83;;;;;;;9.64;100.00;100557.34;4973346;28;20035;-79
2024/04/02 09:40:06;;;;;;;10.80;2.72;;;;;;;9.40;100.00;100571.88;4974951;28;20063;-80
2024/04/02 09:42:33;;;;;;;13.32;2.75;;;;;;;9.18;100.00;100568.50;4973167;28;20507;-80
2024/04/02 09:44:59;;;;;;;11.23;3.10;;;;;;;9.03;100.00;100571.66;4974703;28;20464;-77
2024/04/02 09:47:25;;;;;;;11.23;3.28;;;;;;;8.94;100.00;100571.50;4974137;28;20042;-79
2024/04/02 09:49:52;;;;;;;15.93;3.60;;;;;;;9.08;100.00;100572.09;4973773;28;20039;-79
2024/04/02 09:52:18;;;;;;;16.48;3.13;;;;;;;9.16;100.00;100567.78;4985447;28;20084;-80
2024/04/02 09:54:45;;;;;;;14.48;3.63;;;;;;;9.25;100.00;100568.78;4993391;28;20521;-79
2024/04/02 09:57:12;;;;;;;14.27;3.58;;;;;;;9.37;100.00;100568.66;4993447;28;20061;-79
2024/04/02 09:59:38;;;;;;;12.90;3.80;;;;;;;9.51;100.00;100573.56;5003993;28;20090;-81
2024/04/02 10:02:10;;;;;;;14.75;3.05;;;;;;;9.58;100.00;100568.53;5012114;28;20029;-79
2024/04/02 10:04:35;;;;;;;11.15;3.33;;;;;;;9.49;100.00;100567.53;5012161;28;20076;-80
2024/04/02 10:07:01;;;;;;;17.73;3.22;;;;;;;9.51;100.00;100566.44;5013375;28;20593;-78
2024/04/02 10:09:26;;;;;;;13.57;3.00;;;;;;;9.63;100.00;100569.81;5013403;28;20034;-80
2024/04/02 10:11:52;;;;;;;7.05;2.67;;;;;;;9.79;100.00;100557.75;5012797;28;20123;-79
2024/04/02 10:14:18;;;;;;;15.00;3.13;;;;;;;9.97;100.00;100561.41;5013271;28;20115;-80
2024/04/02 10:16:47;;;;;;;9.38;3.17;;;;;;;10.17;100.00;100556.88;5012469;28;20163;-80
2024/04/02 10:19:22;;;;;;;15.68;2.45;;;;;;;10.22;100.00;100559.94;5012747;28;20372;-79
2024/04/02 10:21:48;;;;;;;14.13;2.90;;;;;;;10.08;100.00;100563.06;5012801;28;20448;-79
2024/04/02 10:24:19;;;;;;;11.98;2.80;;;;;;;9.92;100.00;100560.97;5012745;28;20071;-78
2024/04/02 10:26:44;;;;;;;14.07;3.13;;;;;;;9.72;100.00;100568.13;5012564;28;20370;-79
2024/04/02 10:29:10;;;;;;;10.68;2.42;;;;;;;9.53;100.00;100572.44;5012899;28;20030;-79
2024/04/02 10:31:40;;;;;;;10.25;2.85;;;;;;;9.41;100.00;100572.72;5012846;28;20105;-79
2024/04/02 10:34:09;;;;;;;5.22;2.50;;;;;;;9.30;100.00;100571.88;5012837;28;20030;-78
2024/04/02 10:36:39;;;;;;;9.15;2.55;;;;;;;9.38;100.00;100573.84;5012599;28;20073;-78
2024/04/02 10:39:11;;;;;;;11.93;2.53;;;;;;;9.62;100.00;100573.44;5012758;28;20096;-80
2024/04/02 10:41:38;;;;;;;12.82;2.50;;;;;;;10.01;100.00;100575.22;5008788;28;20036;-82
2024/04/02 10:44:04;;;;;;;10.10;2.78;;;;;;;10.27;100.00;100566.66;5012669;28;20038;-79
2024/04/02 10:46:30;;;;;;;9.20;2.17;;;;;;;10.52;100.00;100559.88;5012798;28;20127;-82
2024/04/02 10:49:00;;;;;;;10.88;2.20;;;;;;;10.72;100.00;100561.50;5012247;28;20069;-80
2024/04/02 10:51:29;;;;;;;8.77;2.40;;;;;;;10.89;100.00;100549.22;5012582;28;20053;-81
2024/04/02 10:53:55;;;;;;;8.50;1.88;;;;;;;11.13;100.00;100557.66;5012056;28;20048;-79
2024/04/02 10:56:21;;;;;;;10.35;2.20;;;;;;;11.34;100.00;100554.69;5012119;28;20104;-78
2024/04/02 10:58:48;;;;;;;9.55;2.95;;;;;;;11.40;100.00;100549.59;5010741;28;20037;-78
2024/04/02 11:01:14;;;;;;;6.82;2.00;;;;;;;11.51;100.00;100550.38;5012651;28;20137;-79
2024/04/02 11:03:41;;;;;;;8.02;2.00;;;;;;;12.08;100.00;100550.88;5012507;28;20064;-84
2024/04/02 11:06:07;;;;;;;10.40;1.95;;;;;;;12.65;100.00;100557.56;5012648;28;20034;-78
2024/04/02 11:08:37;;;;;;;4.65;1.80;;;;;;;13.32;100.00;100556.78;5013123;28;20041;-82
2024/04/02 11:11:03;;;;;;;6.35;2.20;;;;;;;13.42;100.00;100559.31;5012215;28;20061;-80
2024/04/02 11:13:28;;;;;;;6.20;2.05;;;;;;;13.23;100.00;100562.09;5011068;28;20030;-77
2024/04/02 11:15:54;;;;;;;7.85;1.83;;;;;;;13.00;100.00;100553.88;5012529;28;20135;-81
2024/04/02 11:18:21;;;;;;;8.32;2.17;;;;;;;12.75;100.00;100557.41;5012088;28;20375;-78
2024/04/02 11:20:46;;;;;;;5.43;1.73;;;;;;;12.34;100.00;100555.38;5010670;28;20034;-81
2024/04/02 11:26:07;;;;;;;4.03;1.48;;;;;;;12.44;100.00;100560.63;5011649;28;20113;-80
2024/04/02 11:28:33;;;;;;;3.75;1.40;;;;;;;12.42;100.00;100567.91;5013073;28;20529;-85